LVGQN SABE-SADF
Flight info
| Callsign | LVGQN |
|---|---|
| Flight time | 0h -2m |
| Altitude | 3000 |
| Route | PAL8 PAL DCT TRINI/N0293F090 |
| Aircraft | E50P/L-SBDFGRWY/LB2 |
Departure
| Time | 2026-04-14 02:18 |
|---|---|
| Airport | Aeroparque Jorge Newbery (SABE) |
Arrival
| Time | 2026-04-14 02:15 |
|---|---|
| Airport | San Fernando Airport (SADF) |
| Time | Latitude | Longitude | Altitude | Speed | Heading |
|---|---|---|---|---|---|
| 2026-04-14 02:07 | -34.56220 | -58.41365 | 22 ft | 0 kts | 214° |
| 2026-04-14 02:13 | -34.56220 | -58.41366 | 22 ft | 1 kts | 214° |
| 2026-04-14 02:14 | -34.56235 | -58.41378 | 23 ft | 5 kts | 214° |
| 2026-04-14 02:14 | -34.56250 | -58.41392 | 22 ft | 1 kts | 250° |
| 2026-04-14 02:14 | -34.56200 | -58.41468 | 22 ft | 15 kts | 310° |
| 2026-04-14 02:14 | -34.56158 | -58.41473 | 22 ft | 10 kts | 36° |
| 2026-04-14 02:15 | -34.56095 | -58.41420 | 22 ft | 12 kts | 33° |
| 2026-04-14 02:15 | -34.56028 | -58.41380 | 22 ft | 6 kts | 325° |
| 2026-04-14 02:15 | -34.56000 | -58.41437 | 23 ft | 13 kts | 303° |
| 2026-04-14 02:15 | -34.55921 | -58.41577 | 20 ft | 27 kts | 305° |
| 2026-04-14 02:16 | -34.55796 | -58.41804 | 21 ft | 36 kts | 303° |
| 2026-04-14 02:16 | -34.55658 | -58.42051 | 25 ft | 35 kts | 303° |
| 2026-04-14 02:16 | -34.55522 | -58.42295 | 25 ft | 35 kts | 303° |
| 2026-04-14 02:16 | -34.55401 | -58.42490 | 24 ft | 12 kts | 340° |
| 2026-04-14 02:17 | -34.55409 | -58.42504 | 23 ft | 6 kts | 140° |
| 2026-04-14 02:17 | -34.55436 | -58.42451 | 22 ft | 23 kts | 123° |
| 2026-04-14 02:17 | -34.55673 | -58.42024 | 25 ft | 96 kts | 122° |
| 2026-04-14 02:17 | -34.56140 | -58.41182 | 212 ft | 140 kts | 122° |
| 2026-04-14 02:18 | -34.56786 | -58.40063 | 431 ft | 186 kts | 123° |
| 2026-04-14 02:18 | -34.57403 | -58.38774 | 1592 ft | 167 kts | 105° |
| 2026-04-14 02:18 | -34.57435 | -58.37458 | 2671 ft | 151 kts | 73° |
| 2026-04-14 02:18 | -34.57020 | -58.36161 | 2989 ft | 187 kts | 58° |
| 2026-04-14 02:19 | -34.56298 | -58.34624 | 3002 ft | 230 kts | 59° |
| 2026-04-14 02:19 | -34.55504 | -58.32802 | 3005 ft | 261 kts | 60° |
| 2026-04-14 02:19 | -34.54649 | -58.30848 | 3008 ft | 257 kts | 58° |
| 2026-04-14 02:19 | -34.53490 | -58.29273 | 3006 ft | 248 kts | 36° |
| 2026-04-14 02:20 | -34.51968 | -58.28367 | 3006 ft | 244 kts | 15° |
| 2026-04-14 02:20 | -34.50291 | -58.28216 | 3005 ft | 243 kts | 355° |
| 2026-04-14 02:20 | -34.48682 | -58.28836 | 3005 ft | 246 kts | 334° |
| 2026-04-14 02:20 | -34.47362 | -58.30164 | 3004 ft | 250 kts | 313° |
| 2026-04-14 02:21 | -34.46576 | -58.32061 | 3009 ft | 259 kts | 286° |
| 2026-04-14 02:21 | -34.46589 | -58.34280 | 3001 ft | 268 kts | 264° |
| 2026-04-14 02:21 | -34.46903 | -58.36485 | 3002 ft | 270 kts | 262° |
| 2026-04-14 02:21 | -34.47233 | -58.38743 | 3000 ft | 272 kts | 262° |
| 2026-04-14 02:22 | -34.47558 | -58.41012 | 3005 ft | 274 kts | 262° |
| 2026-04-14 02:22 | -34.47892 | -58.43274 | 3001 ft | 274 kts | 262° |
| 2026-04-14 02:22 | -34.48209 | -58.45455 | 3005 ft | 274 kts | 262° |
| 2026-04-14 02:22 | -34.48535 | -58.47730 | 3001 ft | 274 kts | 262° |
| 2026-04-14 02:23 | -34.48872 | -58.50013 | 3002 ft | 274 kts | 262° |
| 2026-04-14 02:23 | -34.49199 | -58.52286 | 2832 ft | 277 kts | 263° |
| 2026-04-14 02:23 | -34.49536 | -58.54601 | 2589 ft | 279 kts | 262° |
| 2026-04-14 02:23 | -34.49873 | -58.56928 | 2317 ft | 282 kts | 262° |
| 2026-04-14 02:24 | -34.50206 | -58.59188 | 1950 ft | 255 kts | 263° |
| 2026-04-14 02:24 | -34.50494 | -58.61094 | 1570 ft | 209 kts | 262° |
| 2026-04-14 02:24 | -34.50725 | -58.62593 | 1221 ft | 186 kts | 262° |
| 2026-04-14 02:25 | -34.50911 | -58.63919 | 1000 ft | 165 kts | 263° |
| 2026-04-14 02:25 | -34.50794 | -58.65123 | 981 ft | 127 kts | 308° |
| 2026-04-14 02:25 | -34.50208 | -58.65520 | 981 ft | 82 kts | 21° |
| 2026-04-14 02:25 | -34.49910 | -58.65074 | 840 ft | 69 kts | 64° |
| 2026-04-14 02:26 | -34.49642 | -58.64512 | 701 ft | 87 kts | 66° |
| 2026-04-14 02:26 | -34.49291 | -58.63820 | 835 ft | 104 kts | 53° |
| 2026-04-14 02:26 | -34.48837 | -58.63145 | 891 ft | 98 kts | 49° |
| 2026-04-14 02:26 | -34.48357 | -58.62526 | 764 ft | 104 kts | 48° |
| 2026-04-14 02:27 | -34.47823 | -58.61868 | 644 ft | 115 kts | 44° |
| 2026-04-14 02:27 | -34.47233 | -58.61213 | 591 ft | 108 kts | 49° |
| 2026-04-14 02:27 | -34.46723 | -58.60599 | 400 ft | 102 kts | 46° |
| 2026-04-14 02:27 | -34.46227 | -58.59999 | 157 ft | 100 kts | 45° |
| 2026-04-14 02:28 | -34.45761 | -58.59452 | 27 ft | 82 kts | 45° |
| 2026-04-14 02:28 | -34.45397 | -58.59018 | 22 ft | 66 kts | 43° |
| 2026-04-14 02:28 | -34.45140 | -58.58716 | 22 ft | 42 kts | 44° |
| 2026-04-14 02:28 | -34.44943 | -58.58483 | 24 ft | 37 kts | 44° |
| 2026-04-14 02:29 | -34.44869 | -58.58312 | 24 ft | 17 kts | 136° |
| 2026-04-14 02:29 | -34.44968 | -58.58228 | 22 ft | 18 kts | 150° |
| 2026-04-14 02:29 | -34.45077 | -58.58151 | 22 ft | 19 kts | 150° |
| 2026-04-14 02:29 | -34.45192 | -58.58069 | 22 ft | 19 kts | 149° |
| 2026-04-14 02:30 | -34.45302 | -58.57989 | 22 ft | 17 kts | 150° |
| 2026-04-14 02:30 | -34.45348 | -58.58020 | 22 ft | 14 kts | 243° |
| 2026-04-14 02:30 | -34.45390 | -58.58050 | 24 ft | 12 kts | 150° |
| 2026-04-14 02:30 | -34.45421 | -58.58032 | 22 ft | 0 kts | 166° |